sensor_id;sensor_type;location;lat;lon;timestamp;P1;durP1;ratioP1;P2;durP2;ratioP2
26718;SDS011;14326;50.794;6.060;2023-03-31T00:00:50;16.95;;;1.98;;
26718;SDS011;14326;50.794;6.060;2023-03-31T00:06:08;14.73;;;2.30;;
26718;SDS011;14326;50.794;6.060;2023-03-31T00:08:52;16.63;;;2.63;;
26718;SDS011;14326;50.794;6.060;2023-03-31T00:11:27;18.70;;;3.00;;
26718;SDS011;14326;50.794;6.060;2023-03-31T00:14:12;18.40;;;2.33;;
26718;SDS011;14326;50.794;6.060;2023-03-31T00:17:03;15.80;;;2.38;;
26718;SDS011;14326;50.794;6.060;2023-03-31T00:19:41;11.40;;;2.40;;
26718;SDS011;14326;50.794;6.060;2023-03-31T00:22:12;14.07;;;2.67;;
26718;SDS011;14326;50.794;6.060;2023-03-31T00:24:54;18.42;;;3.05;;
26718;SDS011;14326;50.794;6.060;2023-03-31T00:27:39;16.65;;;2.72;;
26718;SDS011;14326;50.794;6.060;2023-03-31T00:33:27;21.08;;;2.90;;
26718;SDS011;14326;50.794;6.060;2023-03-31T00:41:39;19.25;;;2.60;;
26718;SDS011;14326;50.794;6.060;2023-03-31T00:44:11;19.75;;;2.58;;
26718;SDS011;14326;50.794;6.060;2023-03-31T00:46:48;21.65;;;3.50;;
26718;SDS011;14326;50.794;6.060;2023-03-31T00:49:54;21.80;;;3.40;;
26718;SDS011;14326;50.794;6.060;2023-03-31T00:52:42;22.90;;;2.90;;
26718;SDS011;14326;50.794;6.060;2023-03-31T00:55:12;25.20;;;3.67;;
26718;SDS011;14326;50.794;6.060;2023-03-31T00:57:48;17.75;;;2.08;;
26718;SDS011;14326;50.794;6.060;2023-03-31T01:00:59;16.58;;;2.85;;
26718;SDS011;14326;50.794;6.060;2023-03-31T01:03:52;20.17;;;2.40;;
26718;SDS011;14326;50.794;6.060;2023-03-31T01:06:32;26.20;;;3.45;;
26718;SDS011;14326;50.794;6.060;2023-03-31T01:09:17;20.67;;;2.90;;
26718;SDS011;14326;50.794;6.060;2023-03-31T01:15:07;19.35;;;2.60;;
26718;SDS011;14326;50.794;6.060;2023-03-31T01:20:35;18.30;;;2.80;;
26718;SDS011;14326;50.794;6.060;2023-03-31T01:23:32;21.02;;;2.70;;
26718;SDS011;14326;50.794;6.060;2023-03-31T01:29:48;22.58;;;3.15;;
26718;SDS011;14326;50.794;6.060;2023-03-31T01:35:49;19.10;;;2.72;;
26718;SDS011;14326;50.794;6.060;2023-03-31T01:38:50;23.42;;;3.33;;
26718;SDS011;14326;50.794;6.060;2023-03-31T01:41:49;23.92;;;3.42;;
26718;SDS011;14326;50.794;6.060;2023-03-31T01:44:31;20.00;;;2.95;;
26718;SDS011;14326;50.794;6.060;2023-03-31T01:47:36;12.70;;;2.47;;
26718;SDS011;14326;50.794;6.060;2023-03-31T01:50:17;24.05;;;3.78;;
26718;SDS011;14326;50.794;6.060;2023-03-31T01:53:15;18.90;;;2.65;;
26718;SDS011;14326;50.794;6.060;2023-03-31T01:56:12;15.57;;;2.47;;
26718;SDS011;14326;50.794;6.060;2023-03-31T01:58:48;21.00;;;4.35;;
26718;SDS011;14326;50.794;6.060;2023-03-31T02:01:55;22.00;;;3.20;;
26718;SDS011;14326;50.794;6.060;2023-03-31T02:04:35;21.80;;;3.20;;
26718;SDS011;14326;50.794;6.060;2023-03-31T02:07:36;20.65;;;2.90;;
26718;SDS011;14326;50.794;6.060;2023-03-31T02:10:47;20.77;;;3.60;;
26718;SDS011;14326;50.794;6.060;2023-03-31T02:13:15;19.30;;;2.80;;
26718;SDS011;14326;50.794;6.060;2023-03-31T02:16:03;18.30;;;2.50;;
26718;SDS011;14326;50.794;6.060;2023-03-31T02:18:44;15.15;;;2.30;;
26718;SDS011;14326;50.794;6.060;2023-03-31T02:21:14;18.20;;;2.30;;
26718;SDS011;14326;50.794;6.060;2023-03-31T02:23:48;15.60;;;2.65;;
26718;SDS011;14326;50.794;6.060;2023-03-31T02:26:28;20.88;;;3.05;;
26718;SDS011;14326;50.794;6.060;2023-03-31T02:29:34;16.83;;;2.22;;
26718;SDS011;14326;50.794;6.060;2023-03-31T02:32:36;17.40;;;2.50;;
26718;SDS011;14326;50.794;6.060;2023-03-31T02:35:26;14.48;;;2.38;;
26718;SDS011;14326;50.794;6.060;2023-03-31T02:38:19;11.98;;;2.00;;
26718;SDS011;14326;50.794;6.060;2023-03-31T02:40:46;16.25;;;2.25;;
26718;SDS011;14326;50.794;6.060;2023-03-31T02:43:15;10.77;;;1.95;;
26718;SDS011;14326;50.794;6.060;2023-03-31T02:45:50;12.23;;;1.70;;
26718;SDS011;14326;50.794;6.060;2023-03-31T02:48:33;10.75;;;1.80;;
26718;SDS011;14326;50.794;6.060;2023-03-31T02:54:49;9.98;;;1.58;;
26718;SDS011;14326;50.794;6.060;2023-03-31T03:00:49;8.82;;;1.95;;
26718;SDS011;14326;50.794;6.060;2023-03-31T03:03:35;10.52;;;1.60;;
26718;SDS011;14326;50.794;6.060;2023-03-31T03:06:26;13.48;;;1.98;;
26718;SDS011;14326;50.794;6.060;2023-03-31T03:09:22;9.32;;;1.52;;
26718;SDS011;14326;50.794;6.060;2023-03-31T03:12:08;4.28;;;1.05;;
26718;SDS011;14326;50.794;6.060;2023-03-31T03:14:51;6.75;;;1.25;;
26718;SDS011;14326;50.794;6.060;2023-03-31T03:18:00;11.68;;;1.88;;
26718;SDS011;14326;50.794;6.060;2023-03-31T03:26:36;8.50;;;1.27;;
26718;SDS011;14326;50.794;6.060;2023-03-31T03:29:07;8.20;;;1.30;;
26718;SDS011;14326;50.794;6.060;2023-03-31T03:31:40;12.75;;;1.42;;
26718;SDS011;14326;50.794;6.060;2023-03-31T03:34:15;6.88;;;1.50;;
26718;SDS011;14326;50.794;6.060;2023-03-31T03:37:14;6.55;;;1.40;;
26718;SDS011;14326;50.794;6.060;2023-03-31T03:39:53;8.15;;;1.40;;
26718;SDS011;14326;50.794;6.060;2023-03-31T03:42:35;7.28;;;1.67;;
26718;SDS011;14326;50.794;6.060;2023-03-31T03:45:08;9.60;;;1.58;;
26718;SDS011;14326;50.794;6.060;2023-03-31T03:47:59;12.38;;;2.25;;
26718;SDS011;14326;50.794;6.060;2023-03-31T03:53:16;6.03;;;2.15;;
26718;SDS011;14326;50.794;6.060;2023-03-31T03:55:51;8.05;;;1.60;;
26718;SDS011;14326;50.794;6.060;2023-03-31T03:58:25;6.03;;;1.48;;
26718;SDS011;14326;50.794;6.060;2023-03-31T04:01:05;9.95;;;1.58;;
26718;SDS011;14326;50.794;6.060;2023-03-31T04:04:03;5.57;;;1.35;;
26718;SDS011;14326;50.794;6.060;2023-03-31T04:06:44;7.80;;;1.75;;
26718;SDS011;14326;50.794;6.060;2023-03-31T04:09:28;11.05;;;1.75;;
26718;SDS011;14326;50.794;6.060;2023-03-31T04:11:55;5.10;;;1.15;;
26718;SDS011;14326;50.794;6.060;2023-03-31T04:14:30;7.45;;;1.90;;
26718;SDS011;14326;50.794;6.060;2023-03-31T04:16:58;11.10;;;1.63;;
26718;SDS011;14326;50.794;6.060;2023-03-31T04:19:27;8.52;;;1.70;;
26718;SDS011;14326;50.794;6.060;2023-03-31T04:21:53;5.85;;;1.30;;
26718;SDS011;14326;50.794;6.060;2023-03-31T04:24:28;7.25;;;1.55;;
26718;SDS011;14326;50.794;6.060;2023-03-31T04:26:57;7.65;;;1.35;;
26718;SDS011;14326;50.794;6.060;2023-03-31T04:32:31;10.23;;;1.88;;
26718;SDS011;14326;50.794;6.060;2023-03-31T04:35:25;7.90;;;1.27;;
26718;SDS011;14326;50.794;6.060;2023-03-31T04:38:12;8.18;;;1.88;;
26718;SDS011;14326;50.794;6.060;2023-03-31T04:40:44;7.53;;;1.30;;
26718;SDS011;14326;50.794;6.060;2023-03-31T04:43:11;9.75;;;1.52;;
26718;SDS011;14326;50.794;6.060;2023-03-31T04:45:43;7.72;;;1.30;;
26718;SDS011;14326;50.794;6.060;2023-03-31T04:48:18;5.63;;;1.17;;
26718;SDS011;14326;50.794;6.060;2023-03-31T04:50:58;6.63;;;1.70;;
26718;SDS011;14326;50.794;6.060;2023-03-31T04:53:25;10.00;;;1.30;;
26718;SDS011;14326;50.794;6.060;2023-03-31T04:55:53;7.75;;;1.20;;
26718;SDS011;14326;50.794;6.060;2023-03-31T04:58:33;7.32;;;1.55;;
26718;SDS011;14326;50.794;6.060;2023-03-31T05:01:03;9.75;;;1.40;;
26718;SDS011;14326;50.794;6.060;2023-03-31T05:03:31;6.18;;;1.38;;
26718;SDS011;14326;50.794;6.060;2023-03-31T05:06:19;7.50;;;1.55;;
26718;SDS011;14326;50.794;6.060;2023-03-31T05:08:53;9.48;;;1.33;;
26718;SDS011;14326;50.794;6.060;2023-03-31T05:11:45;5.35;;;1.33;;
26718;SDS011;14326;50.794;6.060;2023-03-31T05:14:16;5.40;;;1.10;;
26718;SDS011;14326;50.794;6.060;2023-03-31T05:16:45;5.40;;;1.05;;
26718;SDS011;14326;50.794;6.060;2023-03-31T05:19:21;4.13;;;1.08;;
26718;SDS011;14326;50.794;6.060;2023-03-31T05:21:52;6.82;;;1.00;;
26718;SDS011;14326;50.794;6.060;2023-03-31T05:24:31;7.85;;;1.63;;
26718;SDS011;14326;50.794;6.060;2023-03-31T05:27:19;7.07;;;1.30;;
26718;SDS011;14326;50.794;6.060;2023-03-31T05:30:14;4.80;;;1.20;;
26718;SDS011;14326;50.794;6.060;2023-03-31T05:32:41;7.35;;;1.92;;
26718;SDS011;14326;50.794;6.060;2023-03-31T05:35:32;6.20;;;1.10;;
26718;SDS011;14326;50.794;6.060;2023-03-31T05:38:16;10.38;;;1.77;;
26718;SDS011;14326;50.794;6.060;2023-03-31T05:40:53;5.25;;;1.02;;
26718;SDS011;14326;50.794;6.060;2023-03-31T05:46:07;7.50;;;1.25;;
26718;SDS011;14326;50.794;6.060;2023-03-31T05:48:38;5.97;;;1.08;;
26718;SDS011;14326;50.794;6.060;2023-03-31T05:51:05;7.45;;;1.27;;
26718;SDS011;14326;50.794;6.060;2023-03-31T05:53:33;3.80;;;0.90;;
26718;SDS011;14326;50.794;6.060;2023-03-31T05:56:00;9.43;;;2.03;;
26718;SDS011;14326;50.794;6.060;2023-03-31T05:58:29;6.28;;;1.23;;
26718;SDS011;14326;50.794;6.060;2023-03-31T06:01:16;7.65;;;1.20;;
26718;SDS011;14326;50.794;6.060;2023-03-31T06:04:17;7.43;;;1.23;;
26718;SDS011;14326;50.794;6.060;2023-03-31T06:07:03;4.97;;;1.10;;
26718;SDS011;14326;50.794;6.060;2023-03-31T06:09:48;6.40;;;1.08;;
26718;SDS011;14326;50.794;6.060;2023-03-31T06:12:15;7.88;;;1.23;;
26718;SDS011;14326;50.794;6.060;2023-03-31T06:14:45;11.82;;;2.30;;
26718;SDS011;14326;50.794;6.060;2023-03-31T06:17:19;5.20;;;1.30;;
26718;SDS011;14326;50.794;6.060;2023-03-31T06:19:46;13.45;;;1.95;;
26718;SDS011;14326;50.794;6.060;2023-03-31T06:22:12;10.70;;;1.50;;
26718;SDS011;14326;50.794;6.060;2023-03-31T06:24:39;9.55;;;1.60;;
26718;SDS011;14326;50.794;6.060;2023-03-31T06:27:05;7.45;;;1.38;;
26718;SDS011;14326;50.794;6.060;2023-03-31T06:29:32;14.48;;;1.83;;
26718;SDS011;14326;50.794;6.060;2023-03-31T06:31:59;7.47;;;1.30;;
26718;SDS011;14326;50.794;6.060;2023-03-31T06:34:27;6.50;;;1.40;;
26718;SDS011;14326;50.794;6.060;2023-03-31T06:36:54;8.00;;;1.77;;
26718;SDS011;14326;50.794;6.060;2023-03-31T06:39:21;8.77;;;1.42;;
26718;SDS011;14326;50.794;6.060;2023-03-31T06:41:48;6.28;;;1.42;;
26718;SDS011;14326;50.794;6.060;2023-03-31T06:44:17;9.35;;;2.10;;
26718;SDS011;14326;50.794;6.060;2023-03-31T06:46:52;7.82;;;1.80;;
26718;SDS011;14326;50.794;6.060;2023-03-31T06:49:19;10.15;;;1.77;;
26718;SDS011;14326;50.794;6.060;2023-03-31T06:51:51;9.02;;;1.40;;
26718;SDS011;14326;50.794;6.060;2023-03-31T06:54:18;5.80;;;1.48;;
26718;SDS011;14326;50.794;6.060;2023-03-31T06:56:44;10.00;;;1.65;;
26718;SDS011;14326;50.794;6.060;2023-03-31T06:59:24;12.02;;;2.33;;
26718;SDS011;14326;50.794;6.060;2023-03-31T07:01:56;10.80;;;1.65;;
26718;SDS011;14326;50.794;6.060;2023-03-31T07:04:30;12.25;;;1.48;;
26718;SDS011;14326;50.794;6.060;2023-03-31T07:06:59;8.60;;;2.13;;
26718;SDS011;14326;50.794;6.060;2023-03-31T07:09:31;10.18;;;1.80;;
26718;SDS011;14326;50.794;6.060;2023-03-31T07:12:00;11.30;;;1.75;;
26718;SDS011;14326;50.794;6.060;2023-03-31T07:14:31;14.32;;;2.53;;
26718;SDS011;14326;50.794;6.060;2023-03-31T07:17:00;12.10;;;2.95;;
26718;SDS011;14326;50.794;6.060;2023-03-31T07:19:32;11.45;;;2.22;;
26718;SDS011;14326;50.794;6.060;2023-03-31T07:22:18;10.20;;;2.00;;
26718;SDS011;14326;50.794;6.060;2023-03-31T07:24:56;14.57;;;2.08;;
26718;SDS011;14326;50.794;6.060;2023-03-31T07:27:23;11.13;;;2.15;;
26718;SDS011;14326;50.794;6.060;2023-03-31T07:29:55;14.30;;;2.30;;
26718;SDS011;14326;50.794;6.060;2023-03-31T07:32:34;18.05;;;2.25;;
26718;SDS011;14326;50.794;6.060;2023-03-31T07:35:04;14.52;;;2.42;;
26718;SDS011;14326;50.794;6.060;2023-03-31T07:37:34;12.80;;;2.25;;
26718;SDS011;14326;50.794;6.060;2023-03-31T07:42:33;15.95;;;2.15;;
26718;SDS011;14326;50.794;6.060;2023-03-31T07:45:13;10.38;;;2.03;;
26718;SDS011;14326;50.794;6.060;2023-03-31T07:47:45;11.98;;;1.83;;
26718;SDS011;14326;50.794;6.060;2023-03-31T07:52:45;13.15;;;2.80;;
26718;SDS011;14326;50.794;6.060;2023-03-31T07:58:23;16.17;;;3.10;;
26718;SDS011;14326;50.794;6.060;2023-03-31T08:00:51;14.23;;;2.50;;
26718;SDS011;14326;50.794;6.060;2023-03-31T08:03:17;16.15;;;2.67;;
26718;SDS011;14326;50.794;6.060;2023-03-31T08:05:44;17.20;;;3.40;;
26718;SDS011;14326;50.794;6.060;2023-03-31T08:08:13;12.77;;;2.30;;
26718;SDS011;14326;50.794;6.060;2023-03-31T08:10:39;20.00;;;2.80;;
26718;SDS011;14326;50.794;6.060;2023-03-31T08:13:06;16.90;;;2.53;;
26718;SDS011;14326;50.794;6.060;2023-03-31T08:15:32;17.88;;;2.50;;
26718;SDS011;14326;50.794;6.060;2023-03-31T08:17:59;17.63;;;2.47;;
26718;SDS011;14326;50.794;6.060;2023-03-31T08:20:26;19.40;;;3.20;;
26718;SDS011;14326;50.794;6.060;2023-03-31T08:22:53;14.35;;;2.78;;
26718;SDS011;14326;50.794;6.060;2023-03-31T08:25:21;17.77;;;2.53;;
26718;SDS011;14326;50.794;6.060;2023-03-31T08:27:48;13.75;;;2.70;;
26718;SDS011;14326;50.794;6.060;2023-03-31T08:30:16;19.85;;;2.60;;
26718;SDS011;14326;50.794;6.060;2023-03-31T08:32:44;18.67;;;2.60;;
26718;SDS011;14326;50.794;6.060;2023-03-31T08:35:11;16.10;;;2.95;;
26718;SDS011;14326;50.794;6.060;2023-03-31T08:37:38;21.33;;;3.33;;
26718;SDS011;14326;50.794;6.060;2023-03-31T08:40:06;15.10;;;2.40;;
26718;SDS011;14326;50.794;6.060;2023-03-31T08:42:42;17.23;;;3.00;;
26718;SDS011;14326;50.794;6.060;2023-03-31T08:45:14;15.25;;;2.70;;
26718;SDS011;14326;50.794;6.060;2023-03-31T08:47:45;15.60;;;2.28;;
26718;SDS011;14326;50.794;6.060;2023-03-31T08:50:16;18.48;;;3.25;;
26718;SDS011;14326;50.794;6.060;2023-03-31T08:52:47;17.00;;;2.67;;
26718;SDS011;14326;50.794;6.060;2023-03-31T08:55:17;11.43;;;2.10;;
26718;SDS011;14326;50.794;6.060;2023-03-31T08:57:51;19.38;;;2.88;;
26718;SDS011;14326;50.794;6.060;2023-03-31T09:00:23;18.77;;;2.63;;
26718;SDS011;14326;50.794;6.060;2023-03-31T09:02:52;16.58;;;2.63;;
26718;SDS011;14326;50.794;6.060;2023-03-31T09:08:18;14.68;;;2.58;;
26718;SDS011;14326;50.794;6.060;2023-03-31T09:10:58;14.95;;;2.70;;
26718;SDS011;14326;50.794;6.060;2023-03-31T09:16:32;11.18;;;2.03;;
26718;SDS011;14326;50.794;6.060;2023-03-31T09:19:07;15.23;;;2.65;;
26718;SDS011;14326;50.794;6.060;2023-03-31T09:21:39;19.38;;;3.00;;
26718;SDS011;14326;50.794;6.060;2023-03-31T09:24:10;19.52;;;2.80;;
26718;SDS011;14326;50.794;6.060;2023-03-31T09:26:44;20.88;;;2.65;;
26718;SDS011;14326;50.794;6.060;2023-03-31T09:29:38;13.25;;;2.72;;
26718;SDS011;14326;50.794;6.060;2023-03-31T09:32:23;15.43;;;2.95;;
26718;SDS011;14326;50.794;6.060;2023-03-31T09:34:55;17.80;;;3.08;;
26718;SDS011;14326;50.794;6.060;2023-03-31T09:37:26;18.27;;;2.40;;
26718;SDS011;14326;50.794;6.060;2023-03-31T09:40:13;18.52;;;2.80;;
26718;SDS011;14326;50.794;6.060;2023-03-31T09:42:42;15.75;;;2.85;;
26718;SDS011;14326;50.794;6.060;2023-03-31T09:45:15;14.90;;;2.83;;
26718;SDS011;14326;50.794;6.060;2023-03-31T09:47:44;20.75;;;3.30;;
26718;SDS011;14326;50.794;6.060;2023-03-31T09:50:13;18.33;;;2.83;;
26718;SDS011;14326;50.794;6.060;2023-03-31T09:52:42;17.42;;;3.10;;
26718;SDS011;14326;50.794;6.060;2023-03-31T09:58:04;19.25;;;2.65;;
26718;SDS011;14326;50.794;6.060;2023-03-31T10:00:40;19.58;;;2.67;;
26718;SDS011;14326;50.794;6.060;2023-03-31T10:03:09;18.00;;;2.78;;
26718;SDS011;14326;50.794;6.060;2023-03-31T10:08:19;22.17;;;2.97;;
26718;SDS011;14326;50.794;6.060;2023-03-31T10:10:49;15.75;;;3.53;;
26718;SDS011;14326;50.794;6.060;2023-03-31T10:16:26;17.02;;;2.63;;
26718;SDS011;14326;50.794;6.060;2023-03-31T10:19:11;21.65;;;2.88;;
26718;SDS011;14326;50.794;6.060;2023-03-31T10:21:56;16.45;;;2.20;;
26718;SDS011;14326;50.794;6.060;2023-03-31T10:24:24;12.43;;;2.05;;
26718;SDS011;14326;50.794;6.060;2023-03-31T10:26:53;14.32;;;1.92;;
26718;SDS011;14326;50.794;6.060;2023-03-31T10:29:26;17.15;;;2.47;;
26718;SDS011;14326;50.794;6.060;2023-03-31T10:32:21;17.83;;;2.42;;
26718;SDS011;14326;50.794;6.060;2023-03-31T10:34:58;15.07;;;2.30;;
26718;SDS011;14326;50.794;6.060;2023-03-31T10:37:31;13.57;;;1.77;;
26718;SDS011;14326;50.794;6.060;2023-03-31T10:40:01;16.75;;;2.25;;
26718;SDS011;14326;50.794;6.060;2023-03-31T10:42:39;16.27;;;2.40;;
26718;SDS011;14326;50.794;6.060;2023-03-31T10:45:22;22.00;;;2.42;;
26718;SDS011;14326;50.794;6.060;2023-03-31T10:48:04;17.38;;;2.95;;
26718;SDS011;14326;50.794;6.060;2023-03-31T10:50:50;12.80;;;1.98;;
26718;SDS011;14326;50.794;6.060;2023-03-31T10:53:23;21.65;;;3.65;;
26718;SDS011;14326;50.794;6.060;2023-03-31T10:55:55;22.13;;;3.28;;
26718;SDS011;14326;50.794;6.060;2023-03-31T10:58:33;19.52;;;3.03;;
26718;SDS011;14326;50.794;6.060;2023-03-31T11:01:11;17.88;;;3.22;;
26718;SDS011;14326;50.794;6.060;2023-03-31T11:03:52;19.08;;;3.20;;
26718;SDS011;14326;50.794;6.060;2023-03-31T11:06:54;23.95;;;2.97;;
26718;SDS011;14326;50.794;6.060;2023-03-31T11:09:42;18.25;;;3.10;;
26718;SDS011;14326;50.794;6.060;2023-03-31T11:12:28;22.20;;;3.72;;
26718;SDS011;14326;50.794;6.060;2023-03-31T11:15:16;22.95;;;2.85;;
26718;SDS011;14326;50.794;6.060;2023-03-31T11:18:05;21.27;;;3.78;;
26718;SDS011;14326;50.794;6.060;2023-03-31T11:24:09;23.15;;;3.40;;
26718;SDS011;14326;50.794;6.060;2023-03-31T11:27:23;24.25;;;3.85;;
26718;SDS011;14326;50.794;6.060;2023-03-31T11:30:20;21.40;;;3.80;;
26718;SDS011;14326;50.794;6.060;2023-03-31T11:32:55;22.65;;;3.83;;
26718;SDS011;14326;50.794;6.060;2023-03-31T11:35:47;21.63;;;3.42;;
26718;SDS011;14326;50.794;6.060;2023-03-31T11:41:36;17.75;;;2.63;;
26718;SDS011;14326;50.794;6.060;2023-03-31T11:44:08;26.30;;;4.18;;
26718;SDS011;14326;50.794;6.060;2023-03-31T11:49:09;21.63;;;3.78;;
26718;SDS011;14326;50.794;6.060;2023-03-31T11:51:46;21.25;;;3.00;;
26718;SDS011;14326;50.794;6.060;2023-03-31T11:54:22;17.77;;;2.80;;
26718;SDS011;14326;50.794;6.060;2023-03-31T11:56:57;24.73;;;2.88;;
26718;SDS011;14326;50.794;6.060;2023-03-31T11:59:31;13.77;;;3.28;;
26718;SDS011;14326;50.794;6.060;2023-03-31T12:02:09;19.67;;;3.47;;
26718;SDS011;14326;50.794;6.060;2023-03-31T12:04:43;17.77;;;3.60;;
26718;SDS011;14326;50.794;6.060;2023-03-31T12:07:22;20.58;;;2.80;;
26718;SDS011;14326;50.794;6.060;2023-03-31T12:09:58;13.68;;;2.53;;
26718;SDS011;14326;50.794;6.060;2023-03-31T12:12:44;17.95;;;2.33;;
26718;SDS011;14326;50.794;6.060;2023-03-31T12:15:28;16.60;;;3.63;;
26718;SDS011;14326;50.794;6.060;2023-03-31T12:18:17;18.38;;;2.88;;
26718;SDS011;14326;50.794;6.060;2023-03-31T12:24:22;17.33;;;2.45;;
26718;SDS011;14326;50.794;6.060;2023-03-31T12:27:04;19.13;;;3.03;;
26718;SDS011;14326;50.794;6.060;2023-03-31T12:29:43;16.17;;;2.58;;
26718;SDS011;14326;50.794;6.060;2023-03-31T12:32:18;22.80;;;3.90;;
26718;SDS011;14326;50.794;6.060;2023-03-31T12:34:50;18.60;;;3.38;;
26718;SDS011;14326;50.794;6.060;2023-03-31T12:37:26;14.20;;;2.40;;
26718;SDS011;14326;50.794;6.060;2023-03-31T12:40:17;12.40;;;2.55;;
26718;SDS011;14326;50.794;6.060;2023-03-31T12:45:56;16.17;;;2.70;;
26718;SDS011;14326;50.794;6.060;2023-03-31T12:48:38;16.02;;;2.10;;
26718;SDS011;14326;50.794;6.060;2023-03-31T12:51:29;15.48;;;2.50;;
26718;SDS011;14326;50.794;6.060;2023-03-31T12:54:17;13.63;;;2.08;;
26718;SDS011;14326;50.794;6.060;2023-03-31T12:57:06;16.00;;;2.42;;
26718;SDS011;14326;50.794;6.060;2023-03-31T12:59:41;20.90;;;2.50;;
26718;SDS011;14326;50.794;6.060;2023-03-31T13:02:25;17.45;;;2.90;;
26718;SDS011;14326;50.794;6.060;2023-03-31T13:04:52;17.25;;;2.72;;
26718;SDS011;14326;50.794;6.060;2023-03-31T13:07:34;16.88;;;2.60;;
26718;SDS011;14326;50.794;6.060;2023-03-31T13:12:57;15.80;;;2.45;;
26718;SDS011;14326;50.794;6.060;2023-03-31T13:15:28;13.32;;;2.03;;
26718;SDS011;14326;50.794;6.060;2023-03-31T13:17:58;16.50;;;2.22;;
26718;SDS011;14326;50.794;6.060;2023-03-31T13:20:30;15.13;;;2.10;;
26718;SDS011;14326;50.794;6.060;2023-03-31T13:23:03;11.25;;;2.17;;
26718;SDS011;14326;50.794;6.060;2023-03-31T13:28:23;13.90;;;1.92;;
26718;SDS011;14326;50.794;6.060;2023-03-31T13:30:53;15.38;;;2.13;;
26718;SDS011;14326;50.794;6.060;2023-03-31T13:33:26;11.73;;;1.85;;
26718;SDS011;14326;50.794;6.060;2023-03-31T13:36:21;11.43;;;1.70;;
26718;SDS011;14326;50.794;6.060;2023-03-31T13:42:12;15.73;;;2.20;;
26718;SDS011;14326;50.794;6.060;2023-03-31T13:45:00;13.73;;;1.50;;
26718;SDS011;14326;50.794;6.060;2023-03-31T13:50:33;16.02;;;2.10;;
26718;SDS011;14326;50.794;6.060;2023-03-31T13:53:10;13.25;;;1.60;;
26718;SDS011;14326;50.794;6.060;2023-03-31T13:56:03;15.75;;;2.53;;
26718;SDS011;14326;50.794;6.060;2023-03-31T13:58:46;12.02;;;2.15;;
26718;SDS011;14326;50.794;6.060;2023-03-31T14:01:47;15.77;;;2.55;;
26718;SDS011;14326;50.794;6.060;2023-03-31T14:07:34;16.35;;;2.30;;
26718;SDS011;14326;50.794;6.060;2023-03-31T14:10:09;11.35;;;1.90;;
26718;SDS011;14326;50.794;6.060;2023-03-31T14:13:04;13.82;;;2.22;;
26718;SDS011;14326;50.794;6.060;2023-03-31T14:15:41;13.50;;;2.55;;
26718;SDS011;14326;50.794;6.060;2023-03-31T14:18:19;15.98;;;2.58;;
26718;SDS011;14326;50.794;6.060;2023-03-31T14:20:59;11.82;;;2.17;;
26718;SDS011;14326;50.794;6.060;2023-03-31T14:23:51;16.30;;;2.30;;
26718;SDS011;14326;50.794;6.060;2023-03-31T14:26:46;15.82;;;2.13;;
26718;SDS011;14326;50.794;6.060;2023-03-31T14:29:21;14.70;;;2.45;;
26718;SDS011;14326;50.794;6.060;2023-03-31T14:32:03;12.30;;;2.05;;
26718;SDS011;14326;50.794;6.060;2023-03-31T14:34:45;16.23;;;2.30;;
26718;SDS011;14326;50.794;6.060;2023-03-31T14:40:29;14.10;;;2.30;;
26718;SDS011;14326;50.794;6.060;2023-03-31T14:43:03;15.27;;;2.38;;
26718;SDS011;14326;50.794;6.060;2023-03-31T14:45:31;13.25;;;2.30;;
26718;SDS011;14326;50.794;6.060;2023-03-31T14:48:01;15.55;;;2.15;;
26718;SDS011;14326;50.794;6.060;2023-03-31T14:50:29;20.10;;;2.38;;
26718;SDS011;14326;50.794;6.060;2023-03-31T14:53:12;14.18;;;2.10;;
26718;SDS011;14326;50.794;6.060;2023-03-31T14:55:41;16.55;;;2.00;;
26718;SDS011;14326;50.794;6.060;2023-03-31T14:58:20;11.27;;;1.70;;
26718;SDS011;14326;50.794;6.060;2023-03-31T15:00:58;12.70;;;1.77;;
26718;SDS011;14326;50.794;6.060;2023-03-31T15:03:29;10.75;;;2.10;;
26718;SDS011;14326;50.794;6.060;2023-03-31T15:06:14;10.93;;;2.00;;
26718;SDS011;14326;50.794;6.060;2023-03-31T15:08:59;11.05;;;1.75;;
26718;SDS011;14326;50.794;6.060;2023-03-31T15:11:30;9.65;;;1.65;;
26718;SDS011;14326;50.794;6.060;2023-03-31T15:13:57;11.60;;;1.50;;
26718;SDS011;14326;50.794;6.060;2023-03-31T15:16:29;14.88;;;2.17;;
26718;SDS011;14326;50.794;6.060;2023-03-31T15:19:03;8.48;;;1.48;;
26718;SDS011;14326;50.794;6.060;2023-03-31T15:21:37;10.65;;;1.52;;
26718;SDS011;14326;50.794;6.060;2023-03-31T15:24:06;8.40;;;1.50;;
26718;SDS011;14326;50.794;6.060;2023-03-31T15:26:57;13.02;;;1.70;;
26718;SDS011;14326;50.794;6.060;2023-03-31T15:29:46;6.75;;;1.55;;
26718;SDS011;14326;50.794;6.060;2023-03-31T15:32:28;10.13;;;1.50;;
26718;SDS011;14326;50.794;6.060;2023-03-31T15:34:59;9.40;;;1.58;;
26718;SDS011;14326;50.794;6.060;2023-03-31T15:37:35;8.98;;;1.38;;
26718;SDS011;14326;50.794;6.060;2023-03-31T15:40:14;6.97;;;1.50;;
26718;SDS011;14326;50.794;6.060;2023-03-31T15:43:04;14.80;;;1.77;;
26718;SDS011;14326;50.794;6.060;2023-03-31T15:45:50;10.20;;;1.90;;
26718;SDS011;14326;50.794;6.060;2023-03-31T15:48:22;7.50;;;1.23;;
26718;SDS011;14326;50.794;6.060;2023-03-31T15:51:01;9.57;;;1.38;;
26718;SDS011;14326;50.794;6.060;2023-03-31T15:53:43;8.43;;;1.70;;
26718;SDS011;14326;50.794;6.060;2023-03-31T15:56:23;10.70;;;1.52;;
26718;SDS011;14326;50.794;6.060;2023-03-31T15:59:04;11.52;;;1.50;;
26718;SDS011;14326;50.794;6.060;2023-03-31T16:01:34;9.82;;;1.75;;
26718;SDS011;14326;50.794;6.060;2023-03-31T16:04:37;10.35;;;1.48;;
26718;SDS011;14326;50.794;6.060;2023-03-31T16:07:05;6.80;;;1.10;;
26718;SDS011;14326;50.794;6.060;2023-03-31T16:09:38;14.05;;;2.05;;
26718;SDS011;14326;50.794;6.060;2023-03-31T16:12:10;6.85;;;1.50;;
26718;SDS011;14326;50.794;6.060;2023-03-31T16:14:57;8.70;;;1.42;;
26718;SDS011;14326;50.794;6.060;2023-03-31T16:17:47;11.68;;;3.22;;
26718;SDS011;14326;50.794;6.060;2023-03-31T16:20:32;15.57;;;2.15;;
26718;SDS011;14326;50.794;6.060;2023-03-31T16:23:28;9.63;;;1.50;;
26718;SDS011;14326;50.794;6.060;2023-03-31T16:26:18;10.32;;;1.70;;
26718;SDS011;14326;50.794;6.060;2023-03-31T16:31:50;13.50;;;1.85;;
26718;SDS011;14326;50.794;6.060;2023-03-31T16:34:32;7.68;;;1.38;;
26718;SDS011;14326;50.794;6.060;2023-03-31T16:36:59;11.10;;;1.45;;
26718;SDS011;14326;50.794;6.060;2023-03-31T16:39:40;13.25;;;1.80;;
26718;SDS011;14326;50.794;6.060;2023-03-31T16:42:32;8.68;;;1.95;;
26718;SDS011;14326;50.794;6.060;2023-03-31T16:45:44;9.68;;;1.52;;
26718;SDS011;14326;50.794;6.060;2023-03-31T16:51:13;9.70;;;1.80;;
26718;SDS011;14326;50.794;6.060;2023-03-31T16:53:41;11.52;;;1.52;;
26718;SDS011;14326;50.794;6.060;2023-03-31T16:56:20;6.03;;;1.23;;
26718;SDS011;14326;50.794;6.060;2023-03-31T16:58:48;12.27;;;1.52;;
26718;SDS011;14326;50.794;6.060;2023-03-31T17:01:14;11.57;;;1.48;;
26718;SDS011;14326;50.794;6.060;2023-03-31T17:03:43;11.93;;;1.60;;
26718;SDS011;14326;50.794;6.060;2023-03-31T17:06:10;10.75;;;1.60;;
26718;SDS011;14326;50.794;6.060;2023-03-31T17:08:41;14.05;;;1.90;;
26718;SDS011;14326;50.794;6.060;2023-03-31T17:11:10;12.82;;;1.65;;
26718;SDS011;14326;50.794;6.060;2023-03-31T17:13:38;8.68;;;1.58;;
26718;SDS011;14326;50.794;6.060;2023-03-31T17:16:07;11.75;;;1.55;;
26718;SDS011;14326;50.794;6.060;2023-03-31T17:18:34;13.48;;;1.75;;
26718;SDS011;14326;50.794;6.060;2023-03-31T17:24:09;10.52;;;1.50;;
26718;SDS011;14326;50.794;6.060;2023-03-31T17:26:45;9.40;;;1.73;;
26718;SDS011;14326;50.794;6.060;2023-03-31T17:29:41;11.32;;;2.10;;
26718;SDS011;14326;50.794;6.060;2023-03-31T17:32:31;7.18;;;1.50;;